createdAt,value
2022-09-01T00:01:52.044Z,12.09
2022-09-01T00:04:26.070Z,12.15
2022-09-01T00:06:55.269Z,11.84
2022-09-01T00:09:23.548Z,11.69
2022-09-01T00:11:53.124Z,11.37
2022-09-01T00:14:29.869Z,11.58
2022-09-01T00:17:03.764Z,11.83
2022-09-01T00:19:30.864Z,11.75
2022-09-01T00:21:57.952Z,11.66
2022-09-01T00:24:26.442Z,11.37
2022-09-01T00:26:54.298Z,11.40
2022-09-01T00:29:21.516Z,11.21
2022-09-01T00:31:48.603Z,11.36
2022-09-01T00:34:16.042Z,11.51
2022-09-01T00:36:44.570Z,11.61
2022-09-01T00:39:12.523Z,11.39
2022-09-01T00:41:42.975Z,11.39
2022-09-01T00:44:14.511Z,11.18
2022-09-01T00:46:49.728Z,11.44
2022-09-01T00:49:42.039Z,11.46
2022-09-01T00:52:15.946Z,11.61
2022-09-01T00:54:46.629Z,11.44
2022-09-01T00:57:15.558Z,11.44
2022-09-01T00:59:57.326Z,11.19
2022-09-01T01:02:24.207Z,11.34
2022-09-01T01:04:52.965Z,11.02
2022-09-01T01:07:23.140Z,10.95
2022-09-01T01:09:51.506Z,11.23
2022-09-01T01:12:18.832Z,10.87
2022-09-01T01:14:50.742Z,11.34
2022-09-01T01:17:20.898Z,11.42
2022-09-01T01:20:12.131Z,11.37
2022-09-01T01:23:03.621Z,11.27
2022-09-01T01:25:36.202Z,10.90
2022-09-01T01:28:09.253Z,10.98
2022-09-01T01:30:39.781Z,11.08
2022-09-01T01:33:07.373Z,10.73
2022-09-01T01:35:35.493Z,10.94
2022-09-01T01:38:04.988Z,10.68
2022-09-01T01:40:31.835Z,10.56
2022-09-01T01:43:01.134Z,10.46
2022-09-01T01:45:28.612Z,10.64
2022-09-01T01:47:56.591Z,10.39
2022-09-01T01:50:35.988Z,10.66
2022-09-01T01:53:11.289Z,10.59
2022-09-01T01:55:40.668Z,10.50
2022-09-01T01:58:12.463Z,10.50
2022-09-01T02:00:39.687Z,10.64
2022-09-01T02:03:07.653Z,10.41
2022-09-01T02:05:36.918Z,10.41
2022-09-01T02:08:06.903Z,10.27
2022-09-01T02:10:42.312Z,10.49
2022-09-01T02:13:12.183Z,10.68
2022-09-01T02:15:45.715Z,10.37
2022-09-01T02:18:15.513Z,10.38
2022-09-01T02:20:43.848Z,10.55
2022-09-01T02:23:11.706Z,10.60
2022-09-01T02:26:05.171Z,10.39
2022-09-01T02:28:35.043Z,10.80
2022-09-01T02:31:03.993Z,10.56
2022-09-01T02:33:32.278Z,10.64
2022-09-01T02:36:02.545Z,10.17
2022-09-01T02:38:31.296Z,10.18
2022-09-01T02:40:59.176Z,9.96
2022-09-01T02:43:28.459Z,10.12
2022-09-01T02:45:59.740Z,9.99
2022-09-01T02:48:37.347Z,9.65
2022-09-01T02:51:08.326Z,9.68
2022-09-01T02:53:36.194Z,9.78
2022-09-01T02:56:09.698Z,9.59
2022-09-01T02:58:45.831Z,9.11
2022-09-01T03:01:20.473Z,9.16
2022-09-01T03:03:48.654Z,9.26
2022-09-01T03:06:18.613Z,9.06
2022-09-01T03:08:45.964Z,9.37
2022-09-01T03:11:13.412Z,9.07
2022-09-01T03:13:41.342Z,9.21
2022-09-01T03:16:09.307Z,9.13
2022-09-01T03:18:37.070Z,8.84
2022-09-01T03:21:04.210Z,9.26
2022-09-01T03:23:31.582Z,9.59
2022-09-01T03:25:58.738Z,9.69
2022-09-01T03:28:26.045Z,9.59
2022-09-01T03:30:55.381Z,9.25
2022-09-01T03:33:24.028Z,9.23
2022-09-01T03:35:51.239Z,9.57
2022-09-01T03:38:22.233Z,9.46
2022-09-01T03:40:52.915Z,9.59
2022-09-01T03:43:23.629Z,9.53
2022-09-01T03:45:50.458Z,9.45
2022-09-01T03:48:17.402Z,9.45
2022-09-01T03:50:46.480Z,9.29
2022-09-01T03:53:22.900Z,9.44
2022-09-01T03:55:50.538Z,9.05
2022-09-01T03:58:19.583Z,9.31
2022-09-01T04:00:53.337Z,9.15
2022-09-01T04:03:28.793Z,8.86
2022-09-01T04:05:56.498Z,8.52
2022-09-01T04:08:32.630Z,8.17
2022-09-01T04:11:16.580Z,7.86
2022-09-01T04:13:43.311Z,8.04
2022-09-01T04:16:44.272Z,8.35
2022-09-01T04:19:25.793Z,8.78
2022-09-01T04:21:55.960Z,9.18
2022-09-01T04:24:28.127Z,9.30
2022-09-01T04:26:58.750Z,9.16
2022-09-01T04:29:29.353Z,9.66
2022-09-01T04:32:05.669Z,9.73
2022-09-01T04:34:38.790Z,9.79
2022-09-01T04:37:18.351Z,9.79
2022-09-01T04:39:56.555Z,9.63
2022-09-01T04:42:27.459Z,9.77
2022-09-01T04:44:56.640Z,10.02
2022-09-01T04:47:35.455Z,9.94
2022-09-01T04:50:13.137Z,9.72
2022-09-01T04:52:42.384Z,9.83
2022-09-01T04:55:17.954Z,9.65
2022-09-01T04:57:49.806Z,9.37
2022-09-01T05:00:25.205Z,9.21
2022-09-01T05:02:54.652Z,9.04
2022-09-01T05:05:23.212Z,8.92
2022-09-01T05:07:54.677Z,8.78
2022-09-01T05:10:23.525Z,8.53
2022-09-01T05:12:52.572Z,8.55
2022-09-01T05:15:21.016Z,8.68
2022-09-01T05:17:47.767Z,8.64
2022-09-01T05:20:14.638Z,8.64
2022-09-01T05:22:42.179Z,8.54
2022-09-01T05:25:13.526Z,8.50
2022-09-01T05:27:49.833Z,8.58
2022-09-01T05:30:18.177Z,8.27
2022-09-01T05:32:47.425Z,8.22
2022-09-01T05:35:14.426Z,8.47
2022-09-01T05:37:42.890Z,8.26
2022-09-01T05:40:16.446Z,8.59
2022-09-01T05:42:46.606Z,8.64
2022-09-01T05:45:14.414Z,8.87
2022-09-01T05:47:42.051Z,9.06
2022-09-01T05:50:14.312Z,9.22
2022-09-01T05:52:44.605Z,9.34
2022-09-01T05:55:11.499Z,9.50
2022-09-01T05:57:39.947Z,9.40
2022-09-01T06:00:13.520Z,9.52
2022-09-01T06:02:43.165Z,9.76
2022-09-01T06:05:11.117Z,9.79
2022-09-01T06:07:38.259Z,9.47
2022-09-01T06:10:05.650Z,9.69
2022-09-01T06:12:33.970Z,9.57
2022-09-01T13:34:10.359Z,19.98
2022-09-01T13:42:00.798Z,20.52
2022-09-01T13:55:25.429Z,20.08
2022-09-01T14:24:50.477Z,19.26
2022-09-01T14:43:32.935Z,19.39
2022-09-01T15:13:04.192Z,19.06
2022-09-01T15:50:31.579Z,18.56
2022-09-01T15:53:03.732Z,18.68
2022-09-01T15:55:38.059Z,18.55
2022-09-01T15:58:04.968Z,18.31
2022-09-01T16:03:13.625Z,18.12
2022-09-01T16:05:43.030Z,18.47
2022-09-01T16:08:13.655Z,18.47
2022-09-01T16:10:42.549Z,18.47
2022-09-01T16:16:07.829Z,18.21
2022-09-01T16:18:57.300Z,18.99
2022-09-01T16:45:48.026Z,18.69
2022-09-01T16:48:34.867Z,18.47
2022-09-01T16:51:19.162Z,18.51
2022-09-01T16:54:05.056Z,18.49
2022-09-01T16:56:47.921Z,18.24
2022-09-01T16:59:35.779Z,18.43
2022-09-01T17:02:47.953Z,18.48
2022-09-01T17:05:22.076Z,18.48
2022-09-01T17:07:50.984Z,18.17
2022-09-01T17:16:19.146Z,17.71
2022-09-01T17:32:57.055Z,18.32
2022-09-01T17:41:42.717Z,17.77
2022-09-01T17:44:22.911Z,17.74
2022-09-01T18:53:15.972Z,16.73
2022-09-01T18:56:11.352Z,16.71
2022-09-01T18:58:53.096Z,16.44
2022-09-01T19:01:48.542Z,16.42
2022-09-01T19:04:18.375Z,16.54
2022-09-01T19:07:00.310Z,16.46
2022-09-01T19:09:57.415Z,16.25
2022-09-01T19:12:45.311Z,16.31
2022-09-01T19:15:38.649Z,16.25
2022-09-01T19:18:12.882Z,16.26
2022-09-01T19:20:43.814Z,16.25
2022-09-01T19:23:17.306Z,16.39
2022-09-01T19:25:45.594Z,16.41
2022-09-01T19:28:19.005Z,16.31
2022-09-01T19:30:51.782Z,16.46
2022-09-01T19:33:26.459Z,16.41
2022-09-01T19:35:57.675Z,16.39
2022-09-01T19:38:27.925Z,16.37
2022-09-01T19:41:06.703Z,16.25
2022-09-01T19:43:37.420Z,16.16
2022-09-01T19:46:20.509Z,15.96
2022-09-01T19:49:02.743Z,15.92
2022-09-01T19:51:49.237Z,15.84
2022-09-01T19:54:41.007Z,16.07
2022-09-01T19:57:25.079Z,15.70
2022-09-01T20:00:13.904Z,15.90
2022-09-01T20:03:08.619Z,15.86
2022-09-01T20:05:42.064Z,15.73
2022-09-01T20:08:17.045Z,15.61
2022-09-01T20:11:08.010Z,15.77
2022-09-01T20:14:12.107Z,15.86
2022-09-01T20:16:53.351Z,15.71
2022-09-01T20:19:31.623Z,15.88
2022-09-01T20:22:23.914Z,15.87
2022-09-01T20:25:09.827Z,15.96
2022-09-01T20:27:43.258Z,15.65
2022-09-01T20:30:17.812Z,15.72
2022-09-01T20:33:10.170Z,15.85
2022-09-01T20:35:44.426Z,15.65
2022-09-01T20:38:39.526Z,15.78
2022-09-01T20:41:18.459Z,15.80
2022-09-01T20:43:49.313Z,15.62
2022-09-01T20:46:21.386Z,15.67
2022-09-01T20:48:48.754Z,15.65
2022-09-01T20:51:26.138Z,15.63
2022-09-01T20:54:13.366Z,15.39
2022-09-01T20:56:51.110Z,15.51
2022-09-01T20:59:26.711Z,15.53
2022-09-01T21:02:01.530Z,15.38
2022-09-01T21:04:50.637Z,15.45
2022-09-01T21:08:00.798Z,15.48
2022-09-01T21:10:36.717Z,15.46
2022-09-01T21:13:24.923Z,15.40
2022-09-01T21:16:21.751Z,15.22
2022-09-01T21:19:10.079Z,15.30
2022-09-01T21:21:54.494Z,15.33
2022-09-01T21:24:21.286Z,15.19
2022-09-01T21:26:49.335Z,15.17
2022-09-01T21:29:54.063Z,15.30
2022-09-01T21:32:22.741Z,15.34
2022-09-01T21:34:50.665Z,15.13
2022-09-01T21:37:18.711Z,15.05
2022-09-01T21:39:45.588Z,15.21
2022-09-01T21:42:13.251Z,15.20
2022-09-01T21:44:41.260Z,15.25
2022-09-01T21:47:08.190Z,15.00
2022-09-01T21:49:36.450Z,14.99
2022-09-01T21:52:05.040Z,15.06
2022-09-01T21:54:32.151Z,15.00
2022-09-01T21:56:58.805Z,15.10
2022-09-01T21:59:26.222Z,14.97
2022-09-01T22:01:53.096Z,14.93
2022-09-01T22:04:21.228Z,14.97
2022-09-01T22:06:47.882Z,15.00
2022-09-01T22:09:21.286Z,15.02
2022-09-01T22:11:50.263Z,15.14
2022-09-01T22:14:17.085Z,15.08
2022-09-01T22:16:44.053Z,14.89
2022-09-01T22:19:11.002Z,14.91
2022-09-01T22:21:40.110Z,14.79
2022-09-01T22:24:07.116Z,14.73
2022-09-01T22:26:35.027Z,14.74
2022-09-01T22:29:04.719Z,14.76
2022-09-01T22:31:33.744Z,14.72
2022-09-01T22:34:01.224Z,14.79
2022-09-01T22:36:38.851Z,14.94
2022-09-01T22:39:07.323Z,14.87
2022-09-01T22:41:35.222Z,14.82
2022-09-01T22:44:03.037Z,14.84
2022-09-01T22:46:31.036Z,14.96
2022-09-01T22:48:59.206Z,14.80
2022-09-01T22:51:26.742Z,14.52
2022-09-01T22:53:54.646Z,14.69
2022-09-01T22:56:29.890Z,14.93
2022-09-01T22:58:58.464Z,14.95
2022-09-01T23:01:31.553Z,14.62
2022-09-01T23:04:01.045Z,14.83
2022-09-01T23:06:29.909Z,14.51
2022-09-01T23:08:57.692Z,14.81
2022-09-01T23:11:25.165Z,14.49
2022-09-01T23:13:52.010Z,14.42
2022-09-01T23:16:20.138Z,14.56
2022-09-01T23:18:48.071Z,14.46
2022-09-01T23:21:17.985Z,14.34
2022-09-01T23:23:45.532Z,14.32
2022-09-01T23:26:13.710Z,14.51
2022-09-01T23:28:42.141Z,14.48
2022-09-01T23:31:12.091Z,14.48
2022-09-01T23:33:39.168Z,14.46
2022-09-01T23:36:09.339Z,14.05
2022-09-01T23:38:37.310Z,13.90
2022-09-01T23:41:10.727Z,14.20
2022-09-01T23:43:38.303Z,14.23
2022-09-01T23:46:06.474Z,14.03
2022-09-01T23:48:33.798Z,14.05
2022-09-01T23:51:08.555Z,14.15
2022-09-01T23:53:36.752Z,14.15
2022-09-01T23:56:09.438Z,14.28
2022-09-01T23:58:36.318Z,13.93
